• Join FlightAware (Why Join?)
  • Login
  • US Flag 
08:25AM EDT


 

Airport Tracker/Info


-or-


 

Live Flight TrackerFlight Track Log ✈ JIA9346 ✈ 29-Jun-2013 ✈ KCLT - KDAY

Flight Track Log - Related Links

Times and Time Zones

All times are in EDT time to prevent confusion due to time zone crossing. See the JIA9346 flight status page for this flight to view local times or setup timezone preferences in your user account.

Time Position Orientation Groundspeed Altitude Reporting Facility
EDT Latitude Longitude Course Direction KTS MPH feet Rate Location/Type
09:52PM 35.1992 -80.9353 146° Southeast 149 171 1,700  Level Atlanta Center
09:53PM 35.1608 -80.9039 146° Southeast 205 236 4,200 2,340 Climbing Atlanta Center
09:54PM 35.1650 -80.8247 86° East 293 337 6,500 2,400 Climbing Atlanta Center
09:56PM 35.3378 -80.8131 North 319 367 11,600 2,280 Climbing Atlanta Center
09:57PM 35.4364 -80.8347 350° North 339 390 13,700 2,340 Climbing Atlanta Center
09:58PM 35.5372 -80.8511 352° North 360 414 16,300 2,280 Climbing Atlanta Center
09:59PM 35.6378 -80.8728 350° North 360 414 18,300 1,740 Climbing Atlanta Center
10:00PM 35.7425 -80.8867 354° North 373 429 19,800 1,500 Climbing Atlanta Center
10:01PM 35.8489 -80.8850 North 378 435 21,300 1,500 Climbing Atlanta Center
10:02PM 35.9403 -80.9533 329° Northwest 373 429 22,800 1,200 Climbing Atlanta Center
10:03PM 36.0317 -81.0192 330° Northwest 373 429 23,800 960 Climbing Atlanta Center
10:04PM 36.1272 -81.0903 329° Northwest 393 452 24,800 960 Climbing Atlanta Center
10:05PM 36.2247 -81.1639 329° Northwest 401 461 25,800 900 Climbing Atlanta Center
10:06PM 36.3203 -81.2353 329° Northwest 401 461 26,700 780 Climbing Atlanta Center
10:07PM 36.4200 -81.3092 329° Northwest 413 475 27,400 420 Climbing Atlanta Center
10:09PM 36.6131 -81.4564 329° Northwest 428 493 28,000 180 Climbing Indianapolis Center
10:10PM 36.7150 -81.5306 330° Northwest 448 516 28,000  Level Indianapolis Center
10:11PM 36.8247 -81.6125 329° Northwest 456 525 28,000  Level Indianapolis Center
10:12PM 36.9522 -81.7086 329° Northwest 460 529 28,000  Level Indianapolis Center
10:13PM 37.0597 -81.7922 328° Northwest 458 527 28,000  Level Indianapolis Center
10:14PM 37.1689 -81.8750 329° Northwest 460 529 28,000  Level Indianapolis Center
10:15PM 37.2764 -81.9578 329° Northwest 456 525 28,000  Level Indianapolis Center
10:16PM 37.3972 -82.0231 337° Northwest 470 541 28,000  Level Indianapolis Center
10:17PM 37.5211 -82.0794 340° North 473 544 28,000  Level Indianapolis Center
10:18PM 37.6444 -82.1350 340° North 473 544 28,000  Level Indianapolis Center
10:19PM 37.7697 -82.1933 340° North 479 551 28,000  Level Indianapolis Center
10:20PM 37.8936 -82.2517 340° North 477 549 28,000 -180 Level Indianapolis Center
10:21PM 38.0189 -82.3108 340° North 479 551 27,700 -900 Descending Indianapolis Center
10:22PM 38.1389 -82.3761 337° Northwest 478 550 26,200 -1,560 Descending Indianapolis Center
10:23PM 38.2361 -82.4714 322° Northwest 442 509 24,600 -1,500 Descending Indianapolis Center
10:24PM 38.3250 -82.5594 322° Northwest 420 483 23,200 -1,440 Descending Indianapolis Center
10:25PM 38.4119 -82.6469 322° Northwest 404 465 21,700 -1,500 Descending Indianapolis Center
10:26PM 38.5028 -82.7394 321° Northwest 365 420 20,200 -840 Descending Indianapolis Center
10:27PM 38.5867 -82.8214 323° Northwest 376 433 20,000 -120 Descending Indianapolis Center
10:28PM 38.6589 -82.8931 322° Northwest 380 437 20,000  Level Indianapolis Center
10:29PM 38.7425 -82.9761 322° Northwest 379 436 20,000  Level Indianapolis Center
10:30PM 38.8289 -83.0639 322° Northwest 392 451 20,000  Level Indianapolis Center
10:31PM 38.9178 -83.1550 321° Northwest 405 466 20,000 -420 Level Indianapolis Center
10:33PM 39.0081 -83.2472 322° Northwest 402 463 19,200 -1,440 Descending Indianapolis Center
10:34PM 39.0983 -83.3364 323° Northwest 403 464 17,200 -1,860 Descending Indianapolis Center
10:35PM 39.1822 -83.4217 322° Northwest 379 436 15,500 -1,740 Descending Indianapolis Center
10:36PM 39.2622 -83.5008 323° Northwest 361 415 13,700 -1,740 Descending Indianapolis Center
10:37PM 39.3397 -83.5814 321° Northwest 355 409 12,000 -1,440 Descending Indianapolis Center
10:38PM 39.4225 -83.6631 323° Northwest 366 421 10,900 -1,020 Descending Indianapolis Center
10:39PM 39.5056 -83.7339 327° Northwest 357 411 10,000 -540 Descending Indianapolis Center
10:40PM 39.5814 -83.7994 326° Northwest 331 381 9,900 -1,080 Descending Indianapolis Center
10:41PM 39.6461 -83.8561 326° Northwest 282 325 7,900 -2,100 Descending Indianapolis Center
10:41PM 39.6864 -83.8908 326° Northwest 276 318 6,800 -1,680 Descending Indianapolis Center
10:42PM 39.7125 -83.9128 327° Northwest 280 322 6,200 -1,500 Descending Indianapolis Center
10:42PM 39.7519 -83.9486 325° Northwest 282 325 5,300 -1,500 Descending Indianapolis Center
10:43PM 39.7786 -83.9703 328° Northwest 283 326 4,700 -1,080 Descending Indianapolis Center
10:44PM 39.8419 -84.0256 326° Northwest 277 319 3,700 -900 Descending Indianapolis Center
10:45PM 39.8975 -84.0739 326° Northwest 256 295 3,000 -780 Descending Indianapolis Center
10:45PM 39.9214 -84.0983 322° Northwest 180 207 2,600 -420 Descending Indianapolis Center
10:46PM 39.9397 -84.1142 326° Northwest 212 244 2,600 -480 Level Indianapolis Center
10:47PM 39.9386 -84.1636 268° West 161 185 1,900 -720 Descending Indianapolis Center
10:48PM 39.9156 -84.2067 235° Southwest 148 170 1,200 -420 Descending Indianapolis Center
10:49PM 39.8936 -84.2453 233° Southwest 147 169 1,100 -120 Descending Indianapolis Center